Time,TemperatureF,DewpointF,PressureIn,WindDirection,WindDirectionDegrees,WindSpeedMPH,WindSpeedGustMPH,Humidity,HourlyPrecipIn,Conditions,Clouds,dailyrainin,SoftwareType,DateUTC
2013-09-12 11:00:00,71.0,58.0,29.89,NW,320,3.0,-999.0,65,-99.99,,,-99.99,,2013-09-12 04:00:00,
2013-09-12 11:43:00,71.0,58.0,29.89,NW,320,3.0,-999.0,65,-99.99,,,-99.99,,2013-09-12 04:43:00,
2013-09-12 11:54:00,71.0,58.0,29.89,NW,320,3.0,-999.0,65,-99.99,,,-99.99,,2013-09-12 04:54:00,
2013-09-12 12:00:00,65.0,53.0,29.91,NNW,330,8.0,-999.0,65,-99.99,,,-99.99,,2013-09-12 05:00:00,
2013-09-12 12:43:00,65.0,53.0,29.91,NNW,330,8.0,-999.0,65,-99.99,,,-99.99,,2013-09-12 05:43:00,
2013-09-12 12:52:00,65.0,53.0,29.91,NNW,330,8.0,-999.0,65,-99.99,,,-99.99,,2013-09-12 05:52:00,
2013-09-12 13:00:00,62.0,56.0,29.92,North,360,10.0,-999.0,81,-99.99,,,-99.99,,2013-09-12 06:00:00,
2013-09-12 13:42:00,62.0,56.0,29.92,North,360,10.0,-999.0,81,-99.99,,,-99.99,,2013-09-12 06:42:00,
2013-09-12 13:52:00,62.0,56.0,29.92,North,360,10.0,-999.0,81,-99.99,,,-99.99,,2013-09-12 06:52:00,
2013-09-12 14:00:00,60.0,51.0,29.95,WNW,290,10.0,-999.0,71,-99.99,,,-99.99,,2013-09-12 07:00:00,
2013-09-12 14:43:00,60.0,51.0,29.95,WNW,290,10.0,-999.0,71,-99.99,,,-99.99,,2013-09-12 07:43:00,
2013-09-12 14:52:00,60.0,51.0,29.95,WNW,290,10.0,-999.0,71,-99.99,,,-99.99,,2013-09-12 07:52:00,
2013-09-12 15:00:00,60.0,55.0,29.96,ESE,110,10.0,-999.0,83,-99.99,,,-99.99,,2013-09-12 08:00:00,
2013-09-12 15:42:00,60.0,55.0,29.96,ESE,110,10.0,-999.0,83,-99.99,,,-99.99,,2013-09-12 08:42:00,
2013-09-12 15:51:00,60.0,55.0,29.96,ESE,110,10.0,-999.0,83,-99.99,,,-99.99,,2013-09-12 08:51:00,
2013-09-12 19:00:00,55.0,53.0,29.95,ESE,110,10.0,-999.0,94,-99.99,,,-99.99,,2013-09-12 12:00:00,
2013-09-12 19:42:00,55.0,53.0,29.95,ESE,110,10.0,-999.0,94,-99.99,,,-99.99,,2013-09-12 12:42:00,
2013-09-12 19:52:00,55.0,53.0,29.95,ESE,110,10.0,-999.0,94,-99.99,,,-99.99,,2013-09-12 12:52:00,
2013-09-12 20:00:00,55.0,53.0,29.94,South,190,13.0,-999.0,94,-99.99,,,-99.99,,2013-09-12 13:00:00,
2013-09-12 20:42:00,55.0,53.0,29.94,South,190,13.0,-999.0,94,-99.99,,,-99.99,,2013-09-12 13:42:00,
2013-09-12 20:52:00,55.0,53.0,29.94,South,190,13.0,-999.0,94,-99.99,,,-99.99,,2013-09-12 13:52:00,
2013-09-12 21:00:00,58.0,58.0,29.96,SW,230,5.0,-999.0,98,-99.99,,,-99.99,,2013-09-12 14:00:00,
2013-09-12 21:42:00,58.0,58.0,29.96,SW,230,5.0,-999.0,98,-99.99,,,-99.99,,2013-09-12 14:42:00,
2013-09-12 21:52:00,58.0,58.0,29.96,SW,230,5.0,-999.0,98,-99.99,,,-99.99,,2013-09-12 14:52:00,